sensor_id;sensor_type;location;lat;lon;timestamp;temperature;humidity
9043;DHT22;4556;49.150;8.808;2023-03-23T00:00:04;13.30;99.90
9043;DHT22;4556;49.150;8.808;2023-03-23T00:02:45;13.50;99.90
9043;DHT22;4556;49.150;8.808;2023-03-23T00:05:12;13.30;99.90
9043;DHT22;4556;49.150;8.808;2023-03-23T00:07:40;13.30;99.90
9043;DHT22;4556;49.150;8.808;2023-03-23T00:10:11;13.50;99.90
9043;DHT22;4556;49.150;8.808;2023-03-23T00:12:40;13.00;99.90
9043;DHT22;4556;49.150;8.808;2023-03-23T00:15:28;13.10;99.90
9043;DHT22;4556;49.150;8.808;2023-03-23T00:18:00;13.30;99.90
9043;DHT22;4556;49.150;8.808;2023-03-23T00:20:30;13.30;99.90
9043;DHT22;4556;49.150;8.808;2023-03-23T00:23:03;13.20;99.90
9043;DHT22;4556;49.150;8.808;2023-03-23T00:26:00;13.20;99.90
9043;DHT22;4556;49.150;8.808;2023-03-23T00:28:19;13.20;99.90
9043;DHT22;4556;49.150;8.808;2023-03-23T00:30:54;13.20;99.90
9043;DHT22;4556;49.150;8.808;2023-03-23T00:33:24;13.20;99.90
9043;DHT22;4556;49.150;8.808;2023-03-23T00:35:55;13.40;99.90
9043;DHT22;4556;49.150;8.808;2023-03-23T00:38:32;13.10;99.90
9043;DHT22;4556;49.150;8.808;2023-03-23T00:41:05;13.10;99.90
9043;DHT22;4556;49.150;8.808;2023-03-23T00:43:46;13.20;99.90
9043;DHT22;4556;49.150;8.808;2023-03-23T00:46:17;13.20;99.90
9043;DHT22;4556;49.150;8.808;2023-03-23T00:48:47;13.20;99.90
9043;DHT22;4556;49.150;8.808;2023-03-23T00:51:16;13.10;99.90
9043;DHT22;4556;49.150;8.808;2023-03-23T00:53:43;13.30;99.90
9043;DHT22;4556;49.150;8.808;2023-03-23T00:56:13;13.30;99.90
9043;DHT22;4556;49.150;8.808;2023-03-23T00:58:52;13.30;99.90
9043;DHT22;4556;49.150;8.808;2023-03-23T01:01:19;13.60;99.90
9043;DHT22;4556;49.150;8.808;2023-03-23T01:04:04;13.30;99.90
9043;DHT22;4556;49.150;8.808;2023-03-23T01:06:33;13.60;99.90
9043;DHT22;4556;49.150;8.808;2023-03-23T01:09:05;13.20;99.90
9043;DHT22;4556;49.150;8.808;2023-03-23T01:11:38;13.20;99.90
9043;DHT22;4556;49.150;8.808;2023-03-23T01:14:08;13.30;99.90
9043;DHT22;4556;49.150;8.808;2023-03-23T01:16:35;13.30;99.90
9043;DHT22;4556;49.150;8.808;2023-03-23T01:19:04;13.30;99.90
9043;DHT22;4556;49.150;8.808;2023-03-23T01:21:31;13.30;99.90
9043;DHT22;4556;49.150;8.808;2023-03-23T01:24:12;13.10;99.90
9043;DHT22;4556;49.150;8.808;2023-03-23T01:26:39;13.20;99.90
9043;DHT22;4556;49.150;8.808;2023-03-23T01:29:06;13.30;99.90
9043;DHT22;4556;49.150;8.808;2023-03-23T01:31:33;13.30;99.90
9043;DHT22;4556;49.150;8.808;2023-03-23T01:36:45;13.30;99.90
9043;DHT22;4556;49.150;8.808;2023-03-23T01:39:14;13.30;99.90
9043;DHT22;4556;49.150;8.808;2023-03-23T01:41:41;13.30;99.90
9043;DHT22;4556;49.150;8.808;2023-03-23T01:47:14;13.20;99.90
9043;DHT22;4556;49.150;8.808;2023-03-23T01:49:45;13.20;99.90
9043;DHT22;4556;49.150;8.808;2023-03-23T01:52:23;13.20;99.90
9043;DHT22;4556;49.150;8.808;2023-03-23T01:55:03;13.10;99.90
9043;DHT22;4556;49.150;8.808;2023-03-23T01:57:30;13.30;99.90
9043;DHT22;4556;49.150;8.808;2023-03-23T02:00:00;13.20;99.90
9043;DHT22;4556;49.150;8.808;2023-03-23T02:02:34;13.30;99.90
9043;DHT22;4556;49.150;8.808;2023-03-23T02:05:19;13.20;99.90
9043;DHT22;4556;49.150;8.808;2023-03-23T02:08:02;13.50;99.90
9043;DHT22;4556;49.150;8.808;2023-03-23T02:10:32;13.10;99.90
9043;DHT22;4556;49.150;8.808;2023-03-23T02:13:08;13.00;99.90
9043;DHT22;4556;49.150;8.808;2023-03-23T02:15:42;13.10;99.90
9043;DHT22;4556;49.150;8.808;2023-03-23T02:18:23;13.20;99.90
9043;DHT22;4556;49.150;8.808;2023-03-23T02:21:13;13.00;99.90
9043;DHT22;4556;49.150;8.808;2023-03-23T02:24:26;13.30;99.90
9043;DHT22;4556;49.150;8.808;2023-03-23T02:27:00;13.00;99.90
9043;DHT22;4556;49.150;8.808;2023-03-23T02:29:51;13.00;99.90
9043;DHT22;4556;49.150;8.808;2023-03-23T02:32:49;12.90;99.90
9043;DHT22;4556;49.150;8.808;2023-03-23T02:35:27;12.90;99.90
9043;DHT22;4556;49.150;8.808;2023-03-23T02:38:00;12.90;99.90
9043;DHT22;4556;49.150;8.808;2023-03-23T02:40:33;13.00;99.90
9043;DHT22;4556;49.150;8.808;2023-03-23T02:43:14;13.50;99.90
9043;DHT22;4556;49.150;8.808;2023-03-23T02:45:57;13.20;99.90
9043;DHT22;4556;49.150;8.808;2023-03-23T02:48:29;13.20;99.90
9043;DHT22;4556;49.150;8.808;2023-03-23T02:50:58;12.80;99.90
9043;DHT22;4556;49.150;8.808;2023-03-23T02:53:48;12.90;99.90
9043;DHT22;4556;49.150;8.808;2023-03-23T02:56:20;13.00;99.90
9043;DHT22;4556;49.150;8.808;2023-03-23T02:58:48;13.00;99.90
9043;DHT22;4556;49.150;8.808;2023-03-23T03:01:48;13.20;99.90
9043;DHT22;4556;49.150;8.808;2023-03-23T03:04:27;13.00;99.90
9043;DHT22;4556;49.150;8.808;2023-03-23T03:07:12;12.90;99.90
9043;DHT22;4556;49.150;8.808;2023-03-23T03:09:49;12.70;99.90
9043;DHT22;4556;49.150;8.808;2023-03-23T03:12:27;12.60;99.90
9043;DHT22;4556;49.150;8.808;2023-03-23T03:15:02;12.80;99.90
9043;DHT22;4556;49.150;8.808;2023-03-23T03:17:36;13.00;99.90
9043;DHT22;4556;49.150;8.808;2023-03-23T03:20:09;13.00;99.90
9043;DHT22;4556;49.150;8.808;2023-03-23T03:22:47;13.00;99.90
9043;DHT22;4556;49.150;8.808;2023-03-23T03:25:15;12.90;99.90
9043;DHT22;4556;49.150;8.808;2023-03-23T03:27:50;12.90;99.90
9043;DHT22;4556;49.150;8.808;2023-03-23T03:30:22;12.80;99.90
9043;DHT22;4556;49.150;8.808;2023-03-23T03:33:30;12.80;99.90
9043;DHT22;4556;49.150;8.808;2023-03-23T03:35:44;12.70;99.90
9043;DHT22;4556;49.150;8.808;2023-03-23T03:38:13;12.60;99.90
9043;DHT22;4556;49.150;8.808;2023-03-23T03:40:42;12.70;99.90
9043;DHT22;4556;49.150;8.808;2023-03-23T03:43:09;12.60;99.90
9043;DHT22;4556;49.150;8.808;2023-03-23T03:45:38;12.60;99.90
9043;DHT22;4556;49.150;8.808;2023-03-23T03:48:07;12.50;99.90
9043;DHT22;4556;49.150;8.808;2023-03-23T03:50:50;12.40;99.90
9043;DHT22;4556;49.150;8.808;2023-03-23T03:53:36;12.60;99.90
9043;DHT22;4556;49.150;8.808;2023-03-23T03:56:07;12.40;99.90
9043;DHT22;4556;49.150;8.808;2023-03-23T03:58:36;12.40;99.90
9043;DHT22;4556;49.150;8.808;2023-03-23T04:01:03;12.40;99.90
9043;DHT22;4556;49.150;8.808;2023-03-23T04:03:31;12.50;99.90
9043;DHT22;4556;49.150;8.808;2023-03-23T04:05:58;12.50;99.90
9043;DHT22;4556;49.150;8.808;2023-03-23T04:08:26;12.70;99.90
9043;DHT22;4556;49.150;8.808;2023-03-23T04:10:55;12.50;99.90
9043;DHT22;4556;49.150;8.808;2023-03-23T04:13:22;12.50;99.90
9043;DHT22;4556;49.150;8.808;2023-03-23T04:15:49;12.30;99.90
9043;DHT22;4556;49.150;8.808;2023-03-23T04:18:17;12.30;99.90
9043;DHT22;4556;49.150;8.808;2023-03-23T04:20:45;12.40;99.90
9043;DHT22;4556;49.150;8.808;2023-03-23T04:23:19;12.40;99.90
9043;DHT22;4556;49.150;8.808;2023-03-23T04:25:49;12.30;99.90
9043;DHT22;4556;49.150;8.808;2023-03-23T04:28:29;12.20;99.90
9043;DHT22;4556;49.150;8.808;2023-03-23T04:30:59;12.20;99.90
9043;DHT22;4556;49.150;8.808;2023-03-23T04:33:33;12.50;99.90
9043;DHT22;4556;49.150;8.808;2023-03-23T04:36:12;12.30;99.90
9043;DHT22;4556;49.150;8.808;2023-03-23T04:38:41;12.70;99.90
9043;DHT22;4556;49.150;8.808;2023-03-23T04:41:08;12.30;99.90
9043;DHT22;4556;49.150;8.808;2023-03-23T04:43:37;12.40;99.90
9043;DHT22;4556;49.150;8.808;2023-03-23T04:46:11;12.70;99.90
9043;DHT22;4556;49.150;8.808;2023-03-23T04:48:45;12.70;99.90
9043;DHT22;4556;49.150;8.808;2023-03-23T04:51:17;12.70;99.90
9043;DHT22;4556;49.150;8.808;2023-03-23T04:54:03;13.40;99.90
9043;DHT22;4556;49.150;8.808;2023-03-23T04:56:30;12.80;99.90
9043;DHT22;4556;49.150;8.808;2023-03-23T04:58:59;12.80;99.90
9043;DHT22;4556;49.150;8.808;2023-03-23T05:01:26;12.70;99.90
9043;DHT22;4556;49.150;8.808;2023-03-23T05:03:57;12.70;99.90
9043;DHT22;4556;49.150;8.808;2023-03-23T05:06:25;12.70;99.90
9043;DHT22;4556;49.150;8.808;2023-03-23T05:09:04;12.60;99.90
9043;DHT22;4556;49.150;8.808;2023-03-23T05:11:31;12.50;99.90
9043;DHT22;4556;49.150;8.808;2023-03-23T05:14:21;12.50;99.90
9043;DHT22;4556;49.150;8.808;2023-03-23T05:16:48;12.60;99.90
9043;DHT22;4556;49.150;8.808;2023-03-23T05:19:21;13.00;99.90
9043;DHT22;4556;49.150;8.808;2023-03-23T05:21:59;13.10;99.90
9043;DHT22;4556;49.150;8.808;2023-03-23T05:24:29;13.30;99.90
9043;DHT22;4556;49.150;8.808;2023-03-23T05:26:58;13.80;99.90
9043;DHT22;4556;49.150;8.808;2023-03-23T05:29:27;13.50;99.90
9043;DHT22;4556;49.150;8.808;2023-03-23T05:31:57;13.70;99.90
9043;DHT22;4556;49.150;8.808;2023-03-23T05:34:25;13.20;99.90
9043;DHT22;4556;49.150;8.808;2023-03-23T05:37:20;13.70;99.90
9043;DHT22;4556;49.150;8.808;2023-03-23T05:39:47;13.70;99.90
9043;DHT22;4556;49.150;8.808;2023-03-23T05:42:28;13.50;99.90
9043;DHT22;4556;49.150;8.808;2023-03-23T05:45:19;13.50;99.90
9043;DHT22;4556;49.150;8.808;2023-03-23T05:47:55;13.30;99.90
9043;DHT22;4556;49.150;8.808;2023-03-23T05:50:23;13.60;99.90
9043;DHT22;4556;49.150;8.808;2023-03-23T05:52:50;13.20;99.90
9043;DHT22;4556;49.150;8.808;2023-03-23T05:55:40;12.90;99.90
9043;DHT22;4556;49.150;8.808;2023-03-23T05:58:13;12.90;99.90
9043;DHT22;4556;49.150;8.808;2023-03-23T06:00:42;12.70;99.90
9043;DHT22;4556;49.150;8.808;2023-03-23T06:03:10;12.70;99.90
9043;DHT22;4556;49.150;8.808;2023-03-23T06:05:42;12.90;99.90
9043;DHT22;4556;49.150;8.808;2023-03-23T06:08:10;12.80;99.90
9043;DHT22;4556;49.150;8.808;2023-03-23T06:10:52;12.80;99.90
9043;DHT22;4556;49.150;8.808;2023-03-23T06:13:20;12.80;99.90
9043;DHT22;4556;49.150;8.808;2023-03-23T06:15:50;13.60;99.90
9043;DHT22;4556;49.150;8.808;2023-03-23T06:18:22;12.70;99.90
9043;DHT22;4556;49.150;8.808;2023-03-23T06:20:50;12.70;99.90
9043;DHT22;4556;49.150;8.808;2023-03-23T06:23:18;12.70;99.90
9043;DHT22;4556;49.150;8.808;2023-03-23T06:26:16;12.90;99.90
9043;DHT22;4556;49.150;8.808;2023-03-23T06:28:36;12.60;99.90
9043;DHT22;4556;49.150;8.808;2023-03-23T06:31:06;12.70;99.90
9043;DHT22;4556;49.150;8.808;2023-03-23T06:33:34;12.60;99.90
9043;DHT22;4556;49.150;8.808;2023-03-23T06:36:02;12.70;99.90
9043;DHT22;4556;49.150;8.808;2023-03-23T06:38:34;12.70;99.90
9043;DHT22;4556;49.150;8.808;2023-03-23T06:41:03;12.70;99.90
9043;DHT22;4556;49.150;8.808;2023-03-23T06:43:30;12.70;99.90
9043;DHT22;4556;49.150;8.808;2023-03-23T06:48:58;12.70;99.90
9043;DHT22;4556;49.150;8.808;2023-03-23T06:51:25;12.60;99.90
9043;DHT22;4556;49.150;8.808;2023-03-23T06:53:55;12.80;99.90
9043;DHT22;4556;49.150;8.808;2023-03-23T06:56:38;12.60;99.90
9043;DHT22;4556;49.150;8.808;2023-03-23T06:59:08;12.50;99.90
9043;DHT22;4556;49.150;8.808;2023-03-23T07:01:42;12.80;99.90
9043;DHT22;4556;49.150;8.808;2023-03-23T07:04:25;12.70;99.90
9043;DHT22;4556;49.150;8.808;2023-03-23T07:06:52;12.50;99.90
9043;DHT22;4556;49.150;8.808;2023-03-23T07:09:19;12.60;99.90
9043;DHT22;4556;49.150;8.808;2023-03-23T07:12:06;12.60;99.90
9043;DHT22;4556;49.150;8.808;2023-03-23T07:14:34;12.60;99.90
9043;DHT22;4556;49.150;8.808;2023-03-23T07:18:37;12.60;99.90
9043;DHT22;4556;49.150;8.808;2023-03-23T07:19:57;12.60;99.90
9043;DHT22;4556;49.150;8.808;2023-03-23T07:22:28;12.90;99.90
9043;DHT22;4556;49.150;8.808;2023-03-23T07:24:56;12.60;99.90
9043;DHT22;4556;49.150;8.808;2023-03-23T07:27:24;12.60;99.90
9043;DHT22;4556;49.150;8.808;2023-03-23T07:29:51;12.60;99.90
9043;DHT22;4556;49.150;8.808;2023-03-23T07:32:18;12.70;99.90
9043;DHT22;4556;49.150;8.808;2023-03-23T07:34:45;12.70;99.90
9043;DHT22;4556;49.150;8.808;2023-03-23T07:37:44;12.70;99.90
9043;DHT22;4556;49.150;8.808;2023-03-23T07:40:17;12.60;99.90
9043;DHT22;4556;49.150;8.808;2023-03-23T07:42:51;12.70;99.90
9043;DHT22;4556;49.150;8.808;2023-03-23T07:45:18;12.70;99.90
9043;DHT22;4556;49.150;8.808;2023-03-23T07:47:47;12.80;99.90
9043;DHT22;4556;49.150;8.808;2023-03-23T07:50:15;12.70;99.90
9043;DHT22;4556;49.150;8.808;2023-03-23T07:52:44;12.80;99.90
9043;DHT22;4556;49.150;8.808;2023-03-23T07:55:12;12.80;99.90
9043;DHT22;4556;49.150;8.808;2023-03-23T07:57:43;13.10;99.90
9043;DHT22;4556;49.150;8.808;2023-03-23T08:00:11;12.70;99.90
9043;DHT22;4556;49.150;8.808;2023-03-23T08:02:44;12.70;99.90
9043;DHT22;4556;49.150;8.808;2023-03-23T08:05:12;13.20;99.90
9043;DHT22;4556;49.150;8.808;2023-03-23T08:07:40;12.60;99.90
9043;DHT22;4556;49.150;8.808;2023-03-23T08:10:11;13.50;99.90
9043;DHT22;4556;49.150;8.808;2023-03-23T08:12:39;12.60;99.90
9043;DHT22;4556;49.150;8.808;2023-03-23T08:15:09;12.60;99.90
9043;DHT22;4556;49.150;8.808;2023-03-23T08:17:39;12.60;99.90
9043;DHT22;4556;49.150;8.808;2023-03-23T08:20:08;12.60;99.90
9043;DHT22;4556;49.150;8.808;2023-03-23T08:22:38;12.60;99.90
9043;DHT22;4556;49.150;8.808;2023-03-23T08:25:10;12.60;99.90
9043;DHT22;4556;49.150;8.808;2023-03-23T08:27:38;12.60;99.90
9043;DHT22;4556;49.150;8.808;2023-03-23T08:30:10;12.60;99.90
9043;DHT22;4556;49.150;8.808;2023-03-23T08:32:37;12.60;99.90
9043;DHT22;4556;49.150;8.808;2023-03-23T08:35:06;12.60;99.90
9043;DHT22;4556;49.150;8.808;2023-03-23T08:37:34;12.50;99.90
9043;DHT22;4556;49.150;8.808;2023-03-23T08:40:02;12.50;99.90
9043;DHT22;4556;49.150;8.808;2023-03-23T08:42:36;12.50;99.90
9043;DHT22;4556;49.150;8.808;2023-03-23T08:45:05;12.70;99.90
9043;DHT22;4556;49.150;8.808;2023-03-23T08:47:33;12.70;99.90
9043;DHT22;4556;49.150;8.808;2023-03-23T08:50:01;13.00;99.90
9043;DHT22;4556;49.150;8.808;2023-03-23T08:52:29;12.90;99.90
9043;DHT22;4556;49.150;8.808;2023-03-23T08:54:56;13.00;99.90
9043;DHT22;4556;49.150;8.808;2023-03-23T08:57:24;13.00;99.90
9043;DHT22;4556;49.150;8.808;2023-03-23T08:59:53;13.10;99.90
9043;DHT22;4556;49.150;8.808;2023-03-23T09:02:25;13.20;99.90
9043;DHT22;4556;49.150;8.808;2023-03-23T09:04:52;13.30;99.90
9043;DHT22;4556;49.150;8.808;2023-03-23T09:07:20;13.40;99.90
9043;DHT22;4556;49.150;8.808;2023-03-23T09:09:47;13.40;99.90
9043;DHT22;4556;49.150;8.808;2023-03-23T09:12:14;13.50;99.90
9043;DHT22;4556;49.150;8.808;2023-03-23T09:14:42;13.70;99.90
9043;DHT22;4556;49.150;8.808;2023-03-23T09:17:10;13.70;99.90
9043;DHT22;4556;49.150;8.808;2023-03-23T09:19:37;13.50;99.90
9043;DHT22;4556;49.150;8.808;2023-03-23T09:22:04;13.20;99.90
9043;DHT22;4556;49.150;8.808;2023-03-23T09:24:31;13.40;99.90
9043;DHT22;4556;49.150;8.808;2023-03-23T09:26:58;13.40;99.90
9043;DHT22;4556;49.150;8.808;2023-03-23T09:29:26;13.50;99.90
9043;DHT22;4556;49.150;8.808;2023-03-23T09:31:53;13.50;99.90
9043;DHT22;4556;49.150;8.808;2023-03-23T09:34:23;13.50;99.90
9043;DHT22;4556;49.150;8.808;2023-03-23T09:36:50;13.40;99.90
9043;DHT22;4556;49.150;8.808;2023-03-23T09:39:17;13.40;99.90
9043;DHT22;4556;49.150;8.808;2023-03-23T09:42:13;13.30;99.90
9043;DHT22;4556;49.150;8.808;2023-03-23T09:44:53;13.20;99.90
9043;DHT22;4556;49.150;8.808;2023-03-23T09:47:32;13.20;99.90
9043;DHT22;4556;49.150;8.808;2023-03-23T09:50:08;13.10;99.90
9043;DHT22;4556;49.150;8.808;2023-03-23T09:52:41;13.40;99.90
9043;DHT22;4556;49.150;8.808;2023-03-23T09:55:13;13.00;99.90
9043;DHT22;4556;49.150;8.808;2023-03-23T09:57:47;13.00;99.90
9043;DHT22;4556;49.150;8.808;2023-03-23T10:00:19;13.00;99.90
9043;DHT22;4556;49.150;8.808;2023-03-23T10:02:54;12.90;99.90
9043;DHT22;4556;49.150;8.808;2023-03-23T10:05:31;12.90;99.90
9043;DHT22;4556;49.150;8.808;2023-03-23T10:08:00;12.90;99.90
9043;DHT22;4556;49.150;8.808;2023-03-23T10:10:33;12.90;99.90
9043;DHT22;4556;49.150;8.808;2023-03-23T10:13:32;12.90;99.90
9043;DHT22;4556;49.150;8.808;2023-03-23T10:16:01;12.90;99.90
9043;DHT22;4556;49.150;8.808;2023-03-23T10:18:33;12.90;99.90
9043;DHT22;4556;49.150;8.808;2023-03-23T10:21:02;12.90;99.90
9043;DHT22;4556;49.150;8.808;2023-03-23T10:23:41;12.90;99.90
9043;DHT22;4556;49.150;8.808;2023-03-23T10:26:17;12.90;99.90
9043;DHT22;4556;49.150;8.808;2023-03-23T10:28:50;12.90;99.90
9043;DHT22;4556;49.150;8.808;2023-03-23T10:31:21;14.00;99.90
9043;DHT22;4556;49.150;8.808;2023-03-23T10:33:50;13.30;99.90
9043;DHT22;4556;49.150;8.808;2023-03-23T10:36:23;13.10;99.90
9043;DHT22;4556;49.150;8.808;2023-03-23T10:38:58;13.30;99.90
9043;DHT22;4556;49.150;8.808;2023-03-23T10:41:35;13.10;99.90
9043;DHT22;4556;49.150;8.808;2023-03-23T10:44:19;13.00;99.90
9043;DHT22;4556;49.150;8.808;2023-03-23T10:47:11;13.00;99.90
9043;DHT22;4556;49.150;8.808;2023-03-23T10:49:46;13.10;99.90
9043;DHT22;4556;49.150;8.808;2023-03-23T10:52:31;13.10;99.90
9043;DHT22;4556;49.150;8.808;2023-03-23T10:55:04;13.10;99.90
9043;DHT22;4556;49.150;8.808;2023-03-23T10:57:34;13.10;99.90
9043;DHT22;4556;49.150;8.808;2023-03-23T11:00:04;13.70;99.90
9043;DHT22;4556;49.150;8.808;2023-03-23T11:02:44;13.10;99.90
9043;DHT22;4556;49.150;8.808;2023-03-23T11:05:18;13.10;99.90
9043;DHT22;4556;49.150;8.808;2023-03-23T11:07:53;13.20;99.90
9043;DHT22;4556;49.150;8.808;2023-03-23T11:10:36;13.30;99.90
9043;DHT22;4556;49.150;8.808;2023-03-23T11:13:04;13.20;99.90
9043;DHT22;4556;49.150;8.808;2023-03-23T11:15:39;13.10;99.90
9043;DHT22;4556;49.150;8.808;2023-03-23T11:18:25;13.20;99.90
9043;DHT22;4556;49.150;8.808;2023-03-23T11:21:02;13.20;99.90
9043;DHT22;4556;49.150;8.808;2023-03-23T11:23:54;13.20;99.90
9043;DHT22;4556;49.150;8.808;2023-03-23T11:26:33;13.30;99.90
9043;DHT22;4556;49.150;8.808;2023-03-23T11:29:08;13.40;99.90
9043;DHT22;4556;49.150;8.808;2023-03-23T11:31:44;13.40;99.90
9043;DHT22;4556;49.150;8.808;2023-03-23T11:34:16;13.40;99.90
9043;DHT22;4556;49.150;8.808;2023-03-23T11:39:45;13.20;99.90
9043;DHT22;4556;49.150;8.808;2023-03-23T11:42:19;13.20;99.90
9043;DHT22;4556;49.150;8.808;2023-03-23T11:44:46;13.20;99.90
9043;DHT22;4556;49.150;8.808;2023-03-23T11:47:28;13.10;99.90
9043;DHT22;4556;49.150;8.808;2023-03-23T11:50:03;13.20;99.90
9043;DHT22;4556;49.150;8.808;2023-03-23T11:52:49;13.20;99.90
9043;DHT22;4556;49.150;8.808;2023-03-23T11:55:53;13.10;99.90
9043;DHT22;4556;49.150;8.808;2023-03-23T11:58:32;13.40;99.90
9043;DHT22;4556;49.150;8.808;2023-03-23T12:01:05;13.50;99.90
9043;DHT22;4556;49.150;8.808;2023-03-23T12:03:56;13.50;99.90
9043;DHT22;4556;49.150;8.808;2023-03-23T12:06:41;13.60;99.90
9043;DHT22;4556;49.150;8.808;2023-03-23T12:11:31;13.50;99.90
9043;DHT22;4556;49.150;8.808;2023-03-23T12:12:30;13.50;99.90
9043;DHT22;4556;49.150;8.808;2023-03-23T12:15:15;13.50;99.90
9043;DHT22;4556;49.150;8.808;2023-03-23T12:18:02;13.40;99.90
9043;DHT22;4556;49.150;8.808;2023-03-23T12:21:00;13.60;99.90
9043;DHT22;4556;49.150;8.808;2023-03-23T12:23:36;13.60;99.90
9043;DHT22;4556;49.150;8.808;2023-03-23T12:26:24;13.60;99.90
9043;DHT22;4556;49.150;8.808;2023-03-23T12:32:30;13.70;99.90
9043;DHT22;4556;49.150;8.808;2023-03-23T12:35:14;13.80;99.90
9043;DHT22;4556;49.150;8.808;2023-03-23T12:38:08;13.90;99.90
9043;DHT22;4556;49.150;8.808;2023-03-23T12:43:49;13.80;99.90
9043;DHT22;4556;49.150;8.808;2023-03-23T12:46:39;14.10;99.90
9043;DHT22;4556;49.150;8.808;2023-03-23T12:49:27;13.80;99.90
9043;DHT22;4556;49.150;8.808;2023-03-23T12:52:21;14.00;99.90
9043;DHT22;4556;49.150;8.808;2023-03-23T12:55:27;13.80;99.90
9043;DHT22;4556;49.150;8.808;2023-03-23T12:58:05;13.70;99.90
9043;DHT22;4556;49.150;8.808;2023-03-23T13:01:24;13.80;99.90
9043;DHT22;4556;49.150;8.808;2023-03-23T13:03:57;13.80;99.90
9043;DHT22;4556;49.150;8.808;2023-03-23T13:06:31;14.00;99.90
9043;DHT22;4556;49.150;8.808;2023-03-23T13:09:02;13.80;99.90
9043;DHT22;4556;49.150;8.808;2023-03-23T13:11:33;14.00;99.90
9043;DHT22;4556;49.150;8.808;2023-03-23T13:14:11;13.90;99.90
9043;DHT22;4556;49.150;8.808;2023-03-23T13:16:46;13.90;99.90
9043;DHT22;4556;49.150;8.808;2023-03-23T13:19:19;13.90;99.90
9043;DHT22;4556;49.150;8.808;2023-03-23T13:21:55;13.90;99.90
9043;DHT22;4556;49.150;8.808;2023-03-23T13:24:28;13.90;99.90
9043;DHT22;4556;49.150;8.808;2023-03-23T13:26:57;14.10;99.90
9043;DHT22;4556;49.150;8.808;2023-03-23T13:29:27;14.00;99.90
9043;DHT22;4556;49.150;8.808;2023-03-23T13:32:05;13.90;99.90
9043;DHT22;4556;49.150;8.808;2023-03-23T13:34:35;13.90;99.90
9043;DHT22;4556;49.150;8.808;2023-03-23T13:37:08;14.30;99.90
9043;DHT22;4556;49.150;8.808;2023-03-23T13:39:38;14.40;99.90
9043;DHT22;4556;49.150;8.808;2023-03-23T13:42:20;14.20;99.90
9043;DHT22;4556;49.150;8.808;2023-03-23T13:45:07;14.80;99.90
9043;DHT22;4556;49.150;8.808;2023-03-23T13:47:40;14.60;99.90
9043;DHT22;4556;49.150;8.808;2023-03-23T13:50:12;14.60;99.90
9043;DHT22;4556;49.150;8.808;2023-03-23T13:52:51;14.80;99.90
9043;DHT22;4556;49.150;8.808;2023-03-23T13:55:27;14.70;99.90
9043;DHT22;4556;49.150;8.808;2023-03-23T13:57:57;14.70;99.90
9043;DHT22;4556;49.150;8.808;2023-03-23T14:00:37;14.70;99.90
9043;DHT22;4556;49.150;8.808;2023-03-23T14:03:33;14.70;99.90
9043;DHT22;4556;49.150;8.808;2023-03-23T14:06:04;14.60;99.90
9043;DHT22;4556;49.150;8.808;2023-03-23T14:08:42;14.60;99.90
9043;DHT22;4556;49.150;8.808;2023-03-23T14:11:13;14.60;99.90
9043;DHT22;4556;49.150;8.808;2023-03-23T14:13:45;14.60;99.90
9043;DHT22;4556;49.150;8.808;2023-03-23T14:16:18;14.60;99.90
9043;DHT22;4556;49.150;8.808;2023-03-23T14:18:53;14.70;99.90
9043;DHT22;4556;49.150;8.808;2023-03-23T14:21:35;14.60;99.90
9043;DHT22;4556;49.150;8.808;2023-03-23T14:24:09;14.50;99.90
9043;DHT22;4556;49.150;8.808;2023-03-23T14:26:37;14.50;99.90
9043;DHT22;4556;49.150;8.808;2023-03-23T14:29:05;14.60;99.90
9043;DHT22;4556;49.150;8.808;2023-03-23T14:31:35;14.40;99.90
9043;DHT22;4556;49.150;8.808;2023-03-23T14:34:04;14.60;99.90
9043;DHT22;4556;49.150;8.808;2023-03-23T14:36:34;14.30;99.90
9043;DHT22;4556;49.150;8.808;2023-03-23T14:39:07;14.30;99.90
9043;DHT22;4556;49.150;8.808;2023-03-23T14:41:39;14.30;99.90
9043;DHT22;4556;49.150;8.808;2023-03-23T14:44:12;14.30;99.90
9043;DHT22;4556;49.150;8.808;2023-03-23T14:46:41;14.20;99.90
9043;DHT22;4556;49.150;8.808;2023-03-23T14:49:13;14.30;99.90
9043;DHT22;4556;49.150;8.808;2023-03-23T14:51:47;14.30;99.90
9043;DHT22;4556;49.150;8.808;2023-03-23T14:54:21;14.20;99.90
9043;DHT22;4556;49.150;8.808;2023-03-23T14:56:49;14.60;99.90
9043;DHT22;4556;49.150;8.808;2023-03-23T14:59:17;14.20;99.90
9043;DHT22;4556;49.150;8.808;2023-03-23T15:01:49;14.10;99.90
9043;DHT22;4556;49.150;8.808;2023-03-23T15:04:19;14.30;99.90
9043;DHT22;4556;49.150;8.808;2023-03-23T15:06:49;14.20;99.90
9043;DHT22;4556;49.150;8.808;2023-03-23T15:09:22;14.20;99.90
9043;DHT22;4556;49.150;8.808;2023-03-23T15:11:54;14.10;99.90
9043;DHT22;4556;49.150;8.808;2023-03-23T15:14:24;14.10;99.90
9043;DHT22;4556;49.150;8.808;2023-03-23T15:16:53;14.20;99.90
9043;DHT22;4556;49.150;8.808;2023-03-23T15:19:25;14.10;99.90
9043;DHT22;4556;49.150;8.808;2023-03-23T15:21:54;14.30;99.90
9043;DHT22;4556;49.150;8.808;2023-03-23T15:24:28;14.30;99.90
9043;DHT22;4556;49.150;8.808;2023-03-23T15:27:10;14.50;99.90
9043;DHT22;4556;49.150;8.808;2023-03-23T15:29:50;14.80;99.90
9043;DHT22;4556;49.150;8.808;2023-03-23T15:32:22;14.80;99.90
9043;DHT22;4556;49.150;8.808;2023-03-23T15:34:51;14.70;99.90
9043;DHT22;4556;49.150;8.808;2023-03-23T15:37:21;14.60;99.90
9043;DHT22;4556;49.150;8.808;2023-03-23T15:39:52;15.10;99.90
9043;DHT22;4556;49.150;8.808;2023-03-23T15:42:22;14.50;99.90
9043;DHT22;4556;49.150;8.808;2023-03-23T15:45:02;14.60;99.90
9043;DHT22;4556;49.150;8.808;2023-03-23T15:47:37;14.50;99.90
9043;DHT22;4556;49.150;8.808;2023-03-23T15:50:12;14.70;99.90
9043;DHT22;4556;49.150;8.808;2023-03-23T15:52:40;14.40;99.90
9043;DHT22;4556;49.150;8.808;2023-03-23T15:55:23;14.30;99.90
9043;DHT22;4556;49.150;8.808;2023-03-23T15:57:52;14.30;99.90
9043;DHT22;4556;49.150;8.808;2023-03-23T16:00:21;14.20;99.90
9043;DHT22;4556;49.150;8.808;2023-03-23T16:02:51;14.00;99.90
9043;DHT22;4556;49.150;8.808;2023-03-23T16:05:19;13.80;99.90
9043;DHT22;4556;49.150;8.808;2023-03-23T16:07:46;14.10;99.90
9043;DHT22;4556;49.150;8.808;2023-03-23T16:10:16;14.20;99.90
9043;DHT22;4556;49.150;8.808;2023-03-23T16:12:45;14.30;99.90
9043;DHT22;4556;49.150;8.808;2023-03-23T16:15:13;14.10;99.90
9043;DHT22;4556;49.150;8.808;2023-03-23T16:17:41;14.00;99.90
9043;DHT22;4556;49.150;8.808;2023-03-23T16:20:13;13.80;99.90
9043;DHT22;4556;49.150;8.808;2023-03-23T16:22:41;13.80;99.90
9043;DHT22;4556;49.150;8.808;2023-03-23T16:25:09;14.10;99.90
9043;DHT22;4556;49.150;8.808;2023-03-23T16:27:36;14.10;99.90
9043;DHT22;4556;49.150;8.808;2023-03-23T16:30:13;14.00;99.90
9043;DHT22;4556;49.150;8.808;2023-03-23T16:32:41;13.80;99.90
9043;DHT22;4556;49.150;8.808;2023-03-23T16:35:09;13.80;99.90
9043;DHT22;4556;49.150;8.808;2023-03-23T16:37:36;13.80;99.90
9043;DHT22;4556;49.150;8.808;2023-03-23T16:40:05;13.70;99.90
9043;DHT22;4556;49.150;8.808;2023-03-23T16:42:32;13.60;99.90
9043;DHT22;4556;49.150;8.808;2023-03-23T16:45:00;13.70;99.90
9043;DHT22;4556;49.150;8.808;2023-03-23T16:47:29;13.70;99.90
9043;DHT22;4556;49.150;8.808;2023-03-23T16:49:56;13.80;99.90
9043;DHT22;4556;49.150;8.808;2023-03-23T16:52:23;13.80;99.90
9043;DHT22;4556;49.150;8.808;2023-03-23T16:54:50;13.80;99.90
9043;DHT22;4556;49.150;8.808;2023-03-23T16:57:18;13.90;99.90
9043;DHT22;4556;49.150;8.808;2023-03-23T16:59:45;13.50;99.90
9043;DHT22;4556;49.150;8.808;2023-03-23T17:02:12;13.40;99.90